Time;durP1;ratioP1;P1;durP2;ratioP2;P2;SDS_P1;SDS_P2;PMS_P1;PMS_P2;Temp;Humidity;BMP_temperature;BMP_pressure;BME280_temperature;BME280_humidity;BME280_pressure;Samples;Min_cycle;Max_cycle;Signal;HPM_P1;HPM_P2
2024/01/31 00:02:15;;;;;;;0.82;0.68;;;;;;;19.75;37.93;103263.38;4999617;28;20038;-73
2024/01/31 00:04:40;;;;;;;1.15;0.57;;;;;;;19.70;37.82;103278.72;4991898;28;20054;-74
2024/01/31 00:07:06;;;;;;;0.70;0.43;;;;;;;19.65;38.11;103272.13;4981615;28;20467;-73
2024/01/31 00:09:32;;;;;;;1.50;0.98;;;;;;;19.69;37.92;103270.91;5001237;28;20038;-73
2024/01/31 00:11:57;;;;;;;2.05;0.47;;;;;;;19.70;38.00;103285.81;4984759;28;20359;-74
2024/01/31 00:14:23;;;;;;;1.02;0.70;;;;;;;19.67;37.97;103291.34;4983539;28;20043;-73
2024/01/31 00:16:48;;;;;;;1.85;0.65;;;;;;;19.68;37.86;103301.81;4986707;28;20148;-73
2024/01/31 00:19:14;;;;;;;0.30;0.30;;;;;;;19.67;37.85;103302.75;4993487;28;20046;-73
2024/01/31 00:21:41;;;;;;;1.98;0.75;;;;;;;19.66;38.03;103305.53;4986834;28;20085;-73
2024/01/31 00:24:09;;;;;;;0.63;0.47;;;;;;;19.67;38.03;103308.06;4986049;28;20740;-73
2024/01/31 00:26:36;;;;;;;0.68;0.60;;;;;;;19.65;37.93;103307.34;4988479;28;20984;-73
2024/01/31 00:29:02;;;;;;;1.67;0.90;;;;;;;19.52;37.94;103288.91;4981561;28;20082;-73
2024/01/31 00:31:27;;;;;;;1.35;0.68;;;;;;;19.60;38.05;103330.66;4984842;28;20037;-73
2024/01/31 00:33:54;;;;;;;2.95;0.90;;;;;;;19.55;38.08;103311.63;4986429;28;20477;-73
2024/01/31 00:36:20;;;;;;;2.08;0.70;;;;;;;19.53;38.09;103324.09;5002552;28;20057;-73
2024/01/31 00:38:45;;;;;;;3.17;0.80;;;;;;;19.52;38.01;103330.34;5005562;28;20046;-73
2024/01/31 00:41:11;;;;;;;1.02;0.52;;;;;;;19.35;38.05;103302.56;4989740;28;20082;-74
2024/01/31 00:43:37;;;;;;;1.20;0.68;;;;;;;19.58;38.06;103340.50;4990158;28;20030;-74
2024/01/31 00:46:04;;;;;;;0.45;0.40;;;;;;;19.54;38.13;103329.28;4992492;28;20041;-73
2024/01/31 00:48:29;;;;;;;0.75;0.47;;;;;;;19.53;38.26;103319.66;4987933;28;20050;-73
2024/01/31 00:50:55;;;;;;;0.85;0.70;;;;;;;19.48;38.06;103328.91;4990991;28;20148;-73
2024/01/31 00:53:20;;;;;;;0.73;0.50;;;;;;;19.56;38.00;103335.28;4988106;28;20046;-73
2024/01/31 00:55:46;;;;;;;0.52;0.40;;;;;;;19.44;38.22;103323.00;4992310;28;20127;-73
2024/01/31 00:58:11;;;;;;;2.97;1.00;;;;;;;19.51;38.14;103329.50;4989559;28;20517;-73
2024/01/31 01:00:37;;;;;;;1.35;0.47;;;;;;;19.43;38.05;103315.19;4999249;28;20039;-74
2024/01/31 01:03:02;;;;;;;0.45;0.40;;;;;;;19.52;38.13;103335.63;4982061;28;20108;-73
2024/01/31 01:05:28;;;;;;;2.03;0.88;;;;;;;19.49;38.07;103314.72;4989290;28;20050;-73
2024/01/31 01:07:54;;;;;;;1.42;0.75;;;;;;;19.54;38.04;103321.34;4983645;28;20034;-74
2024/01/31 01:10:19;;;;;;;1.27;0.80;;;;;;;19.55;37.91;103327.50;4983593;28;20050;-73
2024/01/31 01:12:45;;;;;;;0.98;0.50;;;;;;;19.57;38.11;103325.59;5006062;28;20030;-73
2024/01/31 01:15:11;;;;;;;1.33;0.68;;;;;;;19.55;38.06;103323.03;4991545;28;20038;-73
2024/01/31 01:17:37;;;;;;;2.35;0.68;;;;;;;19.54;37.97;103317.88;5000829;28;20038;-73
2024/01/31 01:20:03;;;;;;;0.90;0.47;;;;;;;19.50;38.02;103306.66;4989552;28;20041;-73
2024/01/31 01:22:29;;;;;;;0.82;0.70;;;;;;;19.49;38.10;103312.91;5004133;28;20050;-73
2024/01/31 01:24:54;;;;;;;1.65;0.65;;;;;;;19.53;38.12;103326.72;5003213;28;20104;-73
2024/01/31 01:27:20;;;;;;;0.98;0.35;;;;;;;19.51;38.15;103323.38;4999495;28;20034;-73
2024/01/31 01:29:45;;;;;;;2.97;0.90;;;;;;;19.49;38.05;103312.06;4985808;28;20041;-74
2024/01/31 01:32:11;;;;;;;2.72;0.68;;;;;;;19.38;38.15;103302.31;5014842;28;20082;-73
2024/01/31 01:34:40;;;;;;;1.17;0.50;;;;;;;19.51;38.06;103320.72;4994443;28;20061;-73
2024/01/31 01:37:06;;;;;;;1.80;0.55;;;;;;;19.50;38.10;103330.47;4993809;28;20048;-73
2024/01/31 01:39:31;;;;;;;1.42;0.60;;;;;;;19.48;38.23;103335.03;4993554;28;20033;-73
2024/01/31 01:41:57;;;;;;;0.82;0.50;;;;;;;19.42;38.12;103324.09;4990056;28;20039;-74
2024/01/31 01:44:22;;;;;;;0.98;0.60;;;;;;;19.48;38.16;103332.38;4996550;28;20038;-73
2024/01/31 01:46:49;;;;;;;1.00;0.50;;;;;;;19.36;38.20;103324.53;4997420;28;20049;-73
2024/01/31 01:49:16;;;;;;;0.57;0.40;;;;;;;19.44;38.13;103330.94;5006954;28;20391;-73
2024/01/31 01:51:44;;;;;;;1.33;0.60;;;;;;;19.47;38.12;103341.25;4994888;28;20378;-73
2024/01/31 01:54:12;;;;;;;2.05;0.93;;;;;;;19.41;38.23;103340.91;4996501;28;20049;-73
2024/01/31 01:56:49;;;;;;;0.65;0.50;;;;;;;19.44;38.05;103338.03;5013595;28;20068;-73
2024/01/31 01:59:15;;;;;;;1.30;0.63;;;;;;;19.39;37.95;103334.88;4991424;28;20038;-73
2024/01/31 02:01:42;;;;;;;1.15;0.75;;;;;;;19.47;38.04;103348.34;4985504;28;20041;-73
2024/01/31 02:04:10;;;;;;;1.95;0.50;;;;;;;19.45;38.07;103343.19;4991714;28;20098;-73
2024/01/31 02:06:36;;;;;;;0.57;0.55;;;;;;;19.50;38.03;103346.31;4995765;28;20092;-73
2024/01/31 02:09:03;;;;;;;0.90;0.60;;;;;;;19.41;38.10;103325.88;4988969;28;20468;-73
2024/01/31 02:11:30;;;;;;;1.20;0.68;;;;;;;19.45;38.07;103322.03;4994176;28;20045;-73
2024/01/31 02:13:55;;;;;;;0.82;0.30;;;;;;;19.45;38.11;103327.34;4994279;28;20041;-73
2024/01/31 02:16:21;;;;;;;2.80;0.68;;;;;;;19.46;38.14;103322.88;5007491;28;20172;-73
2024/01/31 02:18:46;;;;;;;1.05;0.60;;;;;;;19.27;38.00;103283.81;4992302;28;20039;-73
2024/01/31 02:21:14;;;;;;;0.30;0.30;;;;;;;19.45;37.98;103324.69;4992873;28;20049;-73
2024/01/31 02:23:40;;;;;;;0.50;0.50;;;;;;;19.47;38.04;103308.72;4985845;28;20137;-74
2024/01/31 02:26:06;;;;;;;0.55;0.32;;;;;;;19.35;38.02;103288.50;4991987;28;20645;-73
2024/01/31 02:28:31;;;;;;;0.85;0.60;;;;;;;19.37;38.22;103307.72;4990574;28;20054;-73
2024/01/31 02:30:57;;;;;;;1.70;0.60;;;;;;;19.41;38.08;103301.28;4987892;28;20046;-74
2024/01/31 02:33:22;;;;;;;1.13;0.30;;;;;;;19.42;38.08;103295.03;5003658;28;20034;-73
2024/01/31 02:35:48;;;;;;;1.70;0.60;;;;;;;19.44;38.00;103303.66;4989927;28;20046;-73
2024/01/31 02:38:13;;;;;;;1.48;0.50;;;;;;;19.44;38.07;103301.88;4990369;28;20046;-73
2024/01/31 02:40:39;;;;;;;2.72;1.13;;;;;;;19.49;38.04;103317.38;4980653;28;20518;-73
2024/01/31 02:43:04;;;;;;;1.90;0.50;;;;;;;19.47;38.14;103312.19;4987024;28;20050;-73
2024/01/31 02:45:30;;;;;;;1.48;0.75;;;;;;;19.46;38.14;103313.16;4990376;28;20034;-74
2024/01/31 02:47:56;;;;;;;1.15;0.50;;;;;;;19.48;38.02;103318.31;5005806;28;20033;-74
2024/01/31 02:50:21;;;;;;;0.82;0.32;;;;;;;19.42;38.06;103317.00;4986113;28;20039;-73
2024/01/31 02:52:48;;;;;;;1.15;0.50;;;;;;;19.42;38.09;103316.16;4989362;28;20022;-73
2024/01/31 02:55:14;;;;;;;1.23;0.45;;;;;;;19.44;38.10;103324.81;4986407;28;20470;-73
2024/01/31 02:57:39;;;;;;;0.93;0.50;;;;;;;19.43;38.00;103318.69;4988203;28;20053;-73
2024/01/31 03:00:06;;;;;;;0.85;0.52;;;;;;;19.30;38.08;103283.59;5002489;28;20120;-73
2024/01/31 03:02:32;;;;;;;0.40;0.30;;;;;;;19.42;38.02;103300.31;4989514;28;20061;-73
2024/01/31 03:04:58;;;;;;;0.70;0.50;;;;;;;19.40;38.09;103291.66;4982628;28;20046;-74
2024/01/31 03:07:23;;;;;;;1.05;0.55;;;;;;;19.45;37.96;103297.44;4986557;28;20043;-73
2024/01/31 03:09:49;;;;;;;1.15;0.60;;;;;;;19.43;37.90;103305.47;4986269;28;20136;-74
2024/01/31 03:12:14;;;;;;;3.22;0.70;;;;;;;19.41;38.22;103306.56;4989195;28;20752;-74
2024/01/31 03:14:40;;;;;;;0.45;0.30;;;;;;;19.44;38.15;103298.38;5004713;28;20142;-73
2024/01/31 03:17:05;;;;;;;1.73;0.70;;;;;;;19.40;38.03;103296.94;4986644;28;20062;-74
2024/01/31 03:19:32;;;;;;;0.43;0.30;;;;;;;19.44;37.92;103306.31;5001054;28;20075;-74
2024/01/31 03:21:58;;;;;;;1.10;0.30;;;;;;;19.46;38.04;103296.47;4985680;28;20601;-74
2024/01/31 03:24:24;;;;;;;1.45;0.60;;;;;;;19.36;38.12;103284.91;4993067;28;20733;-74
2024/01/31 03:26:50;;;;;;;0.95;0.55;;;;;;;19.42;37.96;103287.09;4993683;28;20597;-74
2024/01/31 03:29:16;;;;;;;1.08;0.57;;;;;;;19.36;38.07;103284.91;4990130;28;20149;-74
2024/01/31 03:31:41;;;;;;;1.65;0.50;;;;;;;19.42;38.20;103301.16;4990812;28;20038;-73
2024/01/31 03:34:06;;;;;;;1.33;0.85;;;;;;;19.43;38.01;103292.25;4983787;28;20048;-74
2024/01/31 03:36:33;;;;;;;0.43;0.20;;;;;;;19.36;38.24;103292.81;4985595;28;20041;-74
2024/01/31 03:38:59;;;;;;;3.35;0.50;;;;;;;19.33;38.32;103294.75;4991122;28;20449;-74
2024/01/31 03:41:27;;;;;;;0.32;0.32;;;;;;;19.27;38.21;103276.72;4992656;28;20038;-74
2024/01/31 03:43:54;;;;;;;0.50;0.35;;;;;;;19.35;38.12;103291.97;4994340;28;20046;-73
2024/01/31 03:46:20;;;;;;;1.65;0.47;;;;;;;19.32;38.30;103286.94;4992283;28;20038;-74
2024/01/31 03:48:46;;;;;;;2.38;0.80;;;;;;;19.30;38.22;103281.78;4993553;28;20031;-74
2024/01/31 03:51:23;;;;;;;0.73;0.45;;;;;;;19.28;38.18;103267.00;4991628;28;22995;-74
2024/01/31 03:53:50;;;;;;;0.80;0.50;;;;;;;19.30;38.15;103283.59;4996559;28;20049;-74
2024/01/31 03:56:16;;;;;;;0.28;0.25;;;;;;;19.32;38.23;103285.13;4992253;28;20849;-74
2024/01/31 03:58:42;;;;;;;0.80;0.50;;;;;;;19.38;38.09;103280.34;4994064;28;20494;-74
2024/01/31 04:01:08;;;;;;;1.75;0.47;;;;;;;19.25;38.02;103259.31;4982294;28;20641;-74
2024/01/31 04:03:37;;;;;;;0.70;0.35;;;;;;;19.30;38.16;103263.28;4990415;28;20042;-74
2024/01/31 04:06:02;;;;;;;1.38;0.50;;;;;;;19.33;38.24;103267.50;4993645;28;20103;-74
2024/01/31 04:08:28;;;;;;;1.13;0.38;;;;;;;19.19;38.07;103243.91;4986284;28;20045;-74
2024/01/31 04:10:53;;;;;;;2.92;0.68;;;;;;;19.35;38.08;103272.66;4990057;28;20036;-73
2024/01/31 04:13:19;;;;;;;0.63;0.40;;;;;;;19.25;38.27;103272.53;4989376;28;20061;-74
2024/01/31 04:15:45;;;;;;;1.75;0.50;;;;;;;19.23;38.08;103262.09;5004002;28;20049;-74
2024/01/31 04:18:11;;;;;;;1.08;0.52;;;;;;;19.32;37.98;103265.81;5006393;28;20046;-74
2024/01/31 04:20:40;;;;;;;0.52;0.38;;;;;;;19.27;38.18;103265.31;4984280;28;20042;-74
2024/01/31 04:23:06;;;;;;;0.98;0.50;;;;;;;19.29;38.11;103271.31;4981239;28;20454;-74
2024/01/31 04:25:32;;;;;;;0.80;0.40;;;;;;;19.29;38.22;103277.44;4986699;28;20037;-73
2024/01/31 04:27:58;;;;;;;0.88;0.50;;;;;;;19.20;38.27;103259.66;4986942;28;20514;-73
2024/01/31 04:30:23;;;;;;;1.25;0.93;;;;;;;19.28;38.22;103274.94;4999317;28;20097;-74
2024/01/31 04:32:49;;;;;;;1.38;0.50;;;;;;;19.30;38.12;103273.00;4991854;28;20042;-74
2024/01/31 04:35:14;;;;;;;1.17;0.68;;;;;;;19.27;38.21;103267.97;4985178;28;20104;-74
2024/01/31 04:37:40;;;;;;;0.30;0.28;;;;;;;19.20;38.05;103251.72;4990490;28;20382;-74
2024/01/31 04:40:06;;;;;;;1.23;0.57;;;;;;;19.30;38.20;103273.84;4984973;28;20030;-74
2024/01/31 04:42:32;;;;;;;0.80;0.32;;;;;;;19.24;38.25;103274.34;4983915;28;21587;-74
2024/01/31 04:44:58;;;;;;;0.82;0.40;;;;;;;19.30;38.14;103279.13;5000963;28;20034;-73
2024/01/31 04:47:25;;;;;;;1.10;0.77;;;;;;;19.29;38.20;103272.16;4988577;28;20171;-73
2024/01/31 04:49:56;;;;;;;1.33;0.80;;;;;;;19.26;38.24;103256.56;4985862;28;20100;-73
2024/01/31 04:52:22;;;;;;;1.17;0.52;;;;;;;19.26;38.34;103261.00;4989518;28;20047;-73
2024/01/31 04:54:47;;;;;;;0.75;0.40;;;;;;;19.26;38.20;103248.63;4986806;28;20042;-74
2024/01/31 04:57:13;;;;;;;0.52;0.50;;;;;;;19.27;38.24;103252.13;4984540;28;20041;-74
2024/01/31 04:59:39;;;;;;;1.55;0.40;;;;;;;19.23;38.03;103240.94;4990105;28;20678;-73
2024/01/31 05:02:06;;;;;;;1.23;0.57;;;;;;;19.16;38.19;103223.88;4983752;28;20046;-74
2024/01/31 05:04:32;;;;;;;0.30;0.30;;;;;;;19.25;38.24;103252.22;4993457;28;20104;-73
2024/01/31 05:06:58;;;;;;;2.47;0.88;;;;;;;19.25;38.17;103241.66;4988735;28;20030;-73
2024/01/31 05:09:23;;;;;;;1.08;0.50;;;;;;;19.28;38.13;103244.06;4983371;28;20210;-73
2024/01/31 05:11:49;;;;;;;1.15;0.65;;;;;;;19.22;38.23;103233.97;4979783;28;20057;-74
2024/01/31 05:14:14;;;;;;;0.98;0.60;;;;;;;19.18;38.12;103221.09;4986620;28;20101;-73
2024/01/31 05:16:42;;;;;;;0.52;0.30;;;;;;;19.28;38.20;103236.16;4980706;28;20041;-74
2024/01/31 05:19:11;;;;;;;1.15;0.47;;;;;;;19.25;37.91;103227.63;4986103;28;20042;-73
2024/01/31 05:21:52;;;;;;;0.60;0.47;;;;;;;19.25;38.11;103240.84;4999800;28;20061;-73
2024/01/31 05:24:18;;;;;;;1.98;0.50;;;;;;;19.27;37.99;103245.03;5001347;28;20043;-73
2024/01/31 05:26:45;;;;;;;0.85;0.50;;;;;;;19.18;37.89;103232.50;4998599;28;20030;-74
2024/01/31 05:29:10;;;;;;;1.45;0.80;;;;;;;19.23;38.11;103250.69;4988574;28;20093;-74
2024/01/31 05:31:36;;;;;;;0.98;0.50;;;;;;;19.27;38.16;103267.97;4982792;28;20042;-74
2024/01/31 05:34:02;;;;;;;1.02;0.55;;;;;;;19.30;37.97;103265.94;5007576;28;20037;-73
2024/01/31 05:36:28;;;;;;;1.20;0.50;;;;;;;19.34;38.06;103258.59;4977957;28;20436;-73
2024/01/31 05:38:53;;;;;;;0.90;0.22;;;;;;;19.37;37.91;103255.72;4991644;28;20030;-73
2024/01/31 05:41:19;;;;;;;0.82;0.35;;;;;;;19.47;37.75;103251.41;4987470;28;20039;-72
2024/01/31 05:43:48;;;;;;;0.75;0.47;;;;;;;19.43;37.83;103249.97;4991484;28;20105;-73
2024/01/31 05:46:15;;;;;;;1.40;0.73;;;;;;;19.37;37.76;103234.59;4989916;28;20045;-72
2024/01/31 05:48:42;;;;;;;0.77;0.47;;;;;;;19.46;37.90;103252.38;4985174;28;20391;-72
2024/01/31 05:51:08;;;;;;;1.13;0.57;;;;;;;19.43;37.81;103242.06;4996177;28;20542;-72
2024/01/31 05:53:33;;;;;;;0.73;0.68;;;;;;;19.43;38.01;103247.34;4991432;28;20042;-72
2024/01/31 05:55:59;;;;;;;0.88;0.50;;;;;;;19.46;37.76;103260.31;4981144;28;20049;-73
2024/01/31 05:58:24;;;;;;;2.78;0.60;;;;;;;19.39;38.01;103243.25;4999990;28;20038;-73
2024/01/31 06:00:50;;;;;;;0.50;0.38;;;;;;;19.43;38.14;103251.78;4997241;28;20042;-72
2024/01/31 06:03:15;;;;;;;1.30;0.30;;;;;;;19.46;38.04;103262.13;4995279;28;20100;-72
2024/01/31 06:05:42;;;;;;;0.17;0.17;;;;;;;19.38;38.02;103253.91;4987625;28;20130;-73
2024/01/31 06:08:07;;;;;;;0.90;0.40;;;;;;;19.39;37.94;103253.81;4995560;28;20475;-72
2024/01/31 06:10:33;;;;;;;0.75;0.40;;;;;;;19.37;38.16;103253.06;4983330;28;20030;-72
2024/01/31 06:12:58;;;;;;;0.43;0.30;;;;;;;19.36;38.20;103256.69;4994032;28;20042;-72
2024/01/31 06:15:25;;;;;;;0.80;0.50;;;;;;;19.36;38.04;103247.91;4984208;28;20049;-73
2024/01/31 06:17:51;;;;;;;1.25;0.60;;;;;;;19.34;38.10;103250.69;4994031;28;20045;-73
2024/01/31 06:20:17;;;;;;;0.30;0.30;;;;;;;19.29;38.09;103243.13;5008253;28;20061;-72
2024/01/31 06:22:43;;;;;;;0.55;0.35;;;;;;;19.36;38.15;103255.84;4991415;28;20033;-72
2024/01/31 06:25:08;;;;;;;1.35;0.50;;;;;;;19.25;38.03;103230.25;4984892;28;20050;-72
2024/01/31 06:27:37;;;;;;;1.85;0.50;;;;;;;19.31;38.12;103266.78;5009278;28;20058;-72
2024/01/31 06:30:04;;;;;;;0.20;0.20;;;;;;;19.30;38.24;103273.00;5003058;28;20594;-73
2024/01/31 06:32:33;;;;;;;1.30;0.63;;;;;;;19.29;38.28;103277.44;4990454;28;20053;-73
2024/01/31 06:34:59;;;;;;;0.30;0.30;;;;;;;19.26;38.31;103275.06;4991871;28;20053;-73
2024/01/31 06:37:25;;;;;;;0.77;0.40;;;;;;;19.31;38.26;103277.34;4993398;28;20038;-73
2024/01/31 06:39:50;;;;;;;0.82;0.43;;;;;;;19.26;38.25;103290.91;4989081;28;20164;-73
2024/01/31 06:42:16;;;;;;;0.63;0.45;;;;;;;19.11;38.23;103278.00;4994957;28;20078;-73
2024/01/31 06:44:42;;;;;;;0.63;0.47;;;;;;;19.21;38.28;103311.56;4991348;28;20077;-73
2024/01/31 06:47:07;;;;;;;1.13;0.40;;;;;;;19.16;38.30;103308.38;4980633;28;20038;-72
2024/01/31 06:49:33;;;;;;;1.10;0.70;;;;;;;19.24;38.34;103337.72;5003336;28;20045;-72
2024/01/31 06:51:58;;;;;;;1.40;0.50;;;;;;;19.27;38.25;103347.22;4986461;28;20073;-73
2024/01/31 06:54:24;;;;;;;1.45;0.40;;;;;;;19.27;38.16;103363.91;4986408;28;20344;-73
2024/01/31 06:56:49;;;;;;;0.52;0.40;;;;;;;19.22;38.20;103357.31;4989256;28;20073;-75
2024/01/31 06:59:15;;;;;;;0.35;0.35;;;;;;;19.22;38.28;103367.88;5006603;28;20092;-73
2024/01/31 07:01:40;;;;;;;0.10;0.10;;;;;;;19.24;38.18;103363.31;4988703;28;20039;-72
2024/01/31 07:04:06;;;;;;;1.13;0.50;;;;;;;19.20;38.30;103373.22;4981699;28;20057;-75
2024/01/31 07:06:31;;;;;;;1.63;0.57;;;;;;;19.21;38.35;103372.31;5008199;28;20037;-75
2024/01/31 07:08:57;;;;;;;0.80;0.52;;;;;;;19.33;38.03;103371.38;4985811;28;20065;-76
2024/01/31 07:11:22;;;;;;;0.20;0.20;;;;;;;19.74;37.55;103379.78;4977774;28;20557;-73
2024/01/31 07:13:48;;;;;;;0.57;0.38;;;;;;;20.20;36.99;103375.25;4989900;28;20038;-73
2024/01/31 07:16:14;;;;;;;1.83;0.70;;;;;;;20.47;36.63;103364.34;4984226;28;20469;-72
2024/01/31 07:18:41;;;;;;;1.02;0.57;;;;;;;20.73;36.18;103378.13;4997654;28;20052;-72
2024/01/31 07:21:06;;;;;;;1.00;0.52;;;;;;;20.72;36.12;103373.78;4985643;28;20072;-72
2024/01/31 07:23:32;;;;;;;1.48;0.52;;;;;;;20.66;36.55;103382.25;4985291;28;20478;-73
2024/01/31 07:25:57;;;;;;;0.55;0.35;;;;;;;20.49;36.57;103374.81;4985591;28;20053;-72
2024/01/31 07:28:23;;;;;;;1.30;0.50;;;;;;;20.51;36.70;103384.31;4985478;28;20054;-72
2024/01/31 07:30:48;;;;;;;1.23;0.47;;;;;;;20.41;36.92;103374.56;4988097;28;20049;-73
2024/01/31 07:33:14;;;;;;;0.52;0.32;;;;;;;20.49;36.73;103372.16;4983411;28;20039;-72
2024/01/31 07:35:39;;;;;;;1.13;0.55;;;;;;;20.48;36.77;103368.66;4985782;28;20038;-72
2024/01/31 07:38:05;;;;;;;0.40;0.30;;;;;;;20.48;36.79;103360.72;4984360;28;20018;-72
2024/01/31 07:40:31;;;;;;;1.70;0.68;;;;;;;20.41;37.01;103356.03;4990110;28;20041;-72
2024/01/31 07:42:56;;;;;;;0.73;0.63;;;;;;;20.25;36.94;103331.72;4985581;28;20046;-72
2024/01/31 07:45:22;;;;;;;3.05;1.00;;;;;;;20.36;37.20;103342.31;4990837;28;20049;-73
2024/01/31 07:47:47;;;;;;;1.77;0.82;;;;;;;20.38;37.16;103351.81;5002326;28;20053;-80
2024/01/31 07:50:14;;;;;;;2.20;0.60;;;;;;;20.28;37.17;103331.47;4985555;28;20466;-82
2024/01/31 07:52:40;;;;;;;2.70;0.70;;;;;;;20.38;37.05;103340.38;5006193;28;20459;-81
2024/01/31 07:55:07;;;;;;;1.92;0.80;;;;;;;20.37;37.07;103344.81;4989603;28;20041;-81
2024/01/31 07:57:33;;;;;;;2.67;0.73;;;;;;;20.26;36.98;103323.66;4987769;28;20367;-79
2024/01/31 07:59:58;;;;;;;0.82;0.40;;;;;;;20.34;36.89;103339.78;4995630;28;20046;-79
2024/01/31 08:02:24;;;;;;;1.98;0.68;;;;;;;20.31;37.02;103331.25;4987992;28;20046;-78
2024/01/31 08:04:51;;;;;;;2.85;0.85;;;;;;;20.26;37.16;103326.31;5000805;28;20479;-79
2024/01/31 08:07:16;;;;;;;0.70;0.30;;;;;;;20.27;37.10;103322.69;4987002;28;20088;-78
2024/01/31 08:09:42;;;;;;;1.60;0.57;;;;;;;20.25;37.12;103319.34;5003016;28;20042;-78
2024/01/31 08:12:07;;;;;;;0.93;0.60;;;;;;;20.19;37.13;103322.47;5003071;28;20057;-79
2024/01/31 08:14:33;;;;;;;1.60;0.40;;;;;;;20.12;37.22;103314.19;4993065;28;20508;-79
2024/01/31 08:16:59;;;;;;;1.27;0.60;;;;;;;20.12;37.27;103313.34;4990267;28;20129;-79
2024/01/31 08:19:24;;;;;;;1.73;0.73;;;;;;;20.12;37.34;103322.13;4989722;28;20046;-79
2024/01/31 08:21:50;;;;;;;1.52;0.47;;;;;;;20.07;37.34;103319.00;4987690;28;20104;-78
2024/01/31 08:24:15;;;;;;;1.10;0.63;;;;;;;20.03;37.35;103306.13;4990201;28;20185;-79
2024/01/31 08:26:41;;;;;;;1.85;0.63;;;;;;;20.04;37.40;103318.41;4990993;28;20045;-80
2024/01/31 08:29:07;;;;;;;1.75;0.98;;;;;;;20.00;37.45;103290.50;4985989;28;20108;-79
2024/01/31 08:31:33;;;;;;;0.85;0.40;;;;;;;20.02;37.43;103301.81;4986133;28;20134;-80
2024/01/31 08:33:58;;;;;;;1.80;0.50;;;;;;;20.03;37.24;103304.34;4988119;28;20030;-78
2024/01/31 08:36:24;;;;;;;1.75;0.80;;;;;;;20.09;37.24;103301.19;4986798;28;20109;-78
2024/01/31 08:38:50;;;;;;;1.02;0.40;;;;;;;20.17;36.89;103290.00;4996226;28;20043;-78
2024/01/31 08:41:17;;;;;;;0.80;0.43;;;;;;;20.45;36.78;103312.47;5005983;28;20046;-78
2024/01/31 08:43:42;;;;;;;3.65;1.10;;;;;;;20.56;36.59;103296.56;4986674;28;20049;-78
2024/01/31 08:46:08;;;;;;;1.02;0.70;;;;;;;20.63;36.18;103295.09;5004602;28;20061;-78
2024/01/31 08:48:34;;;;;;;0.88;0.47;;;;;;;20.58;36.54;103297.28;4997307;28;20462;-79
2024/01/31 08:51:02;;;;;;;2.70;0.88;;;;;;;20.57;36.53;103303.53;4984730;28;20057;-78
2024/01/31 08:53:28;;;;;;;2.13;0.80;;;;;;;20.56;36.69;103301.03;4991835;28;20381;-78
2024/01/31 08:55:53;;;;;;;2.03;0.82;;;;;;;20.53;36.69;103302.13;4987222;28;20053;-78
2024/01/31 08:58:19;;;;;;;0.93;0.57;;;;;;;20.53;36.71;103302.13;4990944;28;20730;-78
2024/01/31 09:00:45;;;;;;;1.20;0.63;;;;;;;20.51;36.78;103294.31;4987092;28;20065;-78
2024/01/31 09:03:10;;;;;;;1.75;0.85;;;;;;;20.51;36.77;103301.41;4990199;28;20352;-79
2024/01/31 09:05:36;;;;;;;1.80;0.80;;;;;;;20.46;36.72;103296.47;5002361;28;20097;-79
2024/01/31 09:08:02;;;;;;;0.60;0.40;;;;;;;20.54;36.66;103293.22;5007012;28;20042;-79
2024/01/31 09:10:28;;;;;;;1.45;0.90;;;;;;;20.47;36.84;103295.53;5004216;28;20052;-77
2024/01/31 09:12:53;;;;;;;0.88;0.68;;;;;;;20.39;36.79;103286.47;4993496;28;20034;-78
2024/01/31 09:15:19;;;;;;;1.85;0.68;;;;;;;20.41;36.76;103264.25;5002639;28;20050;-78
2024/01/31 09:17:46;;;;;;;1.13;0.52;;;;;;;20.33;36.73;103264.00;4994343;28;20046;-78
2024/01/31 09:20:12;;;;;;;0.57;0.57;;;;;;;20.31;36.89;103259.81;4979808;28;20065;-80
2024/01/31 09:22:38;;;;;;;1.40;0.80;;;;;;;20.37;36.84;103268.09;4988578;28;20073;-77
2024/01/31 09:25:05;;;;;;;1.25;0.60;;;;;;;20.23;37.13;103261.25;4979532;28;20030;-65
2024/01/31 09:27:31;;;;;;;1.50;0.80;;;;;;;20.23;38.11;103260.41;4998401;28;20077;-66
2024/01/31 09:29:56;;;;;;;8.95;0.77;;;;;;;20.20;38.16;103258.84;4989171;28;20455;-66
2024/01/31 09:32:22;;;;;;;3.13;0.80;;;;;;;20.22;38.31;103254.28;4989552;28;20065;-64
2024/01/31 09:34:47;;;;;;;12.52;1.33;;;;;;;20.36;38.00;103260.28;4985755;28;20046;-66
2024/01/31 09:37:13;;;;;;;3.70;1.13;;;;;;;20.56;37.95;103262.16;4991777;28;20123;-65
2024/01/31 09:39:38;;;;;;;3.20;1.00;;;;;;;20.91;37.75;103261.88;5000303;28;20170;-65
2024/01/31 09:42:04;;;;;;;5.43;0.93;;;;;;;21.50;36.61;103248.03;4996975;28;20058;-65
2024/01/31 09:44:30;;;;;;;4.32;1.33;;;;;;;21.88;36.20;103263.25;4985732;28;20145;-65
2024/01/31 09:46:57;;;;;;;3.03;0.95;;;;;;;21.90;36.02;103263.13;4985764;28;20042;-65
2024/01/31 09:49:23;;;;;;;2.22;0.85;;;;;;;21.59;36.57;103257.88;4984432;28;20487;-65
2024/01/31 09:51:48;;;;;;;3.05;0.70;;;;;;;21.46;36.77;103257.25;4983458;28;20483;-65
2024/01/31 09:54:16;;;;;;;5.30;1.20;;;;;;;21.34;37.08;103256.47;4986157;28;20034;-65
2024/01/31 09:56:42;;;;;;;1.23;0.73;;;;;;;21.14;37.27;103265.25;4986710;28;20115;-65
2024/01/31 09:59:08;;;;;;;0.93;0.65;;;;;;;21.01;37.35;103264.63;4986220;28;20046;-65
2024/01/31 10:01:36;;;;;;;2.15;0.88;;;;;;;20.84;37.58;103260.72;4983165;28;20056;-65
2024/01/31 10:04:02;;;;;;;1.50;1.10;;;;;;;21.06;37.00;103259.75;4988448;28;20046;-65
2024/01/31 10:06:28;;;;;;;1.40;0.93;;;;;;;21.03;37.23;103265.31;4987781;28;20550;-65
2024/01/31 10:08:53;;;;;;;1.20;0.63;;;;;;;21.03;37.16;103257.38;4990850;28;20063;-65
2024/01/31 10:11:19;;;;;;;1.00;0.50;;;;;;;21.02;37.17;103253.91;4982571;28;20050;-65
2024/01/31 10:13:44;;;;;;;1.85;0.93;;;;;;;20.93;37.05;103243.22;4985897;28;20102;-65
2024/01/31 10:16:10;;;;;;;2.53;0.90;;;;;;;20.94;36.98;103252.84;4996260;28;20034;-65
2024/01/31 10:18:36;;;;;;;1.15;0.80;;;;;;;20.92;37.05;103249.47;4992587;28;20043;-65
2024/01/31 10:21:01;;;;;;;4.00;1.40;;;;;;;21.16;36.75;103260.66;4981188;28;20026;-65
2024/01/31 10:23:27;;;;;;;1.10;0.90;;;;;;;21.04;37.17;103261.72;4982790;28;20141;-64
2024/01/31 10:25:53;;;;;;;3.38;0.90;;;;;;;21.11;36.52;103252.25;4987960;28;20061;-66
2024/01/31 10:28:20;;;;;;;0.95;0.60;;;;;;;21.10;36.70;103255.88;4989763;28;20057;-66
2024/01/31 10:30:49;;;;;;;1.25;1.00;;;;;;;21.10;36.74;103245.28;4988226;28;20037;-66
2024/01/31 10:33:15;;;;;;;1.15;0.68;;;;;;;21.09;36.68;103244.44;4990755;28;20042;-66
2024/01/31 10:35:42;;;;;;;1.52;0.70;;;;;;;21.10;36.53;103246.13;4987608;28;20046;-66
2024/01/31 10:38:10;;;;;;;2.28;0.90;;;;;;;21.04;36.50;103237.88;4983977;28;20382;-66
2024/01/31 10:40:39;;;;;;;1.13;0.75;;;;;;;20.99;36.20;103229.44;4990928;28;20497;-66
2024/01/31 10:43:07;;;;;;;9.77;1.48;;;;;;;20.94;36.67;103229.84;4991049;28;20041;-64
2024/01/31 10:45:34;;;;;;;16.45;3.22;;;;;;;20.96;37.05;103235.84;5001382;28;20041;-64
2024/01/31 10:48:00;;;;;;;1.42;0.80;;;;;;;21.02;36.68;103231.88;4989540;28;20061;-63
2024/01/31 10:50:26;;;;;;;2.45;0.80;;;;;;;21.17;36.77;103217.28;4985816;28;20038;-64
2024/01/31 10:52:53;;;;;;;3.13;0.90;;;;;;;21.38;36.31;103210.19;4980455;28;20045;-64
2024/01/31 10:55:21;;;;;;;4.60;1.23;;;;;;;21.61;35.73;103205.53;4991786;28;20090;-62
2024/01/31 10:57:48;;;;;;;1.98;1.00;;;;;;;21.74;35.82;103201.81;4989772;28;20037;-63
2024/01/31 11:00:30;;;;;;;0.80;0.65;;;;;;;21.65;36.45;103196.34;4984899;28;20053;-64
2024/01/31 11:02:57;;;;;;;2.65;0.98;;;;;;;21.30;36.38;103161.47;4987857;28;20400;-64
2024/01/31 11:05:25;;;;;;;9.57;0.90;;;;;;;21.28;36.60;103180.16;4981641;28;20049;-64
2024/01/31 11:07:51;;;;;;;0.95;0.80;;;;;;;21.15;37.04;103168.06;4997937;28;20041;-64
2024/01/31 11:10:18;;;;;;;2.35;0.88;;;;;;;21.11;37.15;103155.06;4985507;28;20038;-63
2024/01/31 11:13:01;;;;;;;1.45;0.95;;;;;;;21.31;36.41;103153.38;4988760;28;20409;-64
2024/01/31 11:15:28;;;;;;;1.23;0.60;;;;;;;21.29;36.68;103143.88;4985330;28;20449;-64
2024/01/31 11:18:09;;;;;;;1.65;0.80;;;;;;;21.25;36.77;103124.78;4984573;28;20046;-63
2024/01/31 11:20:55;;;;;;;0.85;0.65;;;;;;;21.18;36.90;103131.53;4982893;28;20352;-64